sensor_id;sensor_type;location;lat;lon;timestamp;pressure;altitude;pressure_sealevel;temperature;humidity
14041;BME280;7095;51.388;6.196;2023-01-30T00:01:16;74514.09;;;-145.32;100.00
14041;BME280;7095;51.388;6.196;2023-01-30T00:03:45;75026.22;;;-145.32;100.00
14041;BME280;7095;51.388;6.196;2023-01-30T00:06:14;75282.31;;;-145.32;100.00
14041;BME280;7095;51.388;6.196;2023-01-30T00:08:44;75282.31;;;-145.32;100.00
14041;BME280;7095;51.388;6.196;2023-01-30T00:11:14;75282.31;;;-145.32;100.00
14041;BME280;7095;51.388;6.196;2023-01-30T00:13:43;75026.22;;;-145.32;100.00
14041;BME280;7095;51.388;6.196;2023-01-30T00:16:12;75282.31;;;-145.32;100.00
14041;BME280;7095;51.388;6.196;2023-01-30T00:18:41;75538.44;;;-145.32;100.00
14041;BME280;7095;51.388;6.196;2023-01-30T00:21:11;75538.44;;;-145.32;100.00
14041;BME280;7095;51.388;6.196;2023-01-30T00:23:40;75026.22;;;-145.32;100.00
14041;BME280;7095;51.388;6.196;2023-01-30T00:26:11;75282.31;;;-145.32;100.00
14041;BME280;7095;51.388;6.196;2023-01-30T00:28:41;75282.31;;;-145.32;100.00
14041;BME280;7095;51.388;6.196;2023-01-30T00:31:09;75538.44;;;-145.32;100.00
14041;BME280;7095;51.388;6.196;2023-01-30T00:33:38;75538.44;;;-145.32;100.00
14041;BME280;7095;51.388;6.196;2023-01-30T00:36:08;76050.72;;;-145.32;100.00
14041;BME280;7095;51.388;6.196;2023-01-30T00:38:37;76306.91;;;-145.32;100.00
14041;BME280;7095;51.388;6.196;2023-01-30T00:41:06;76819.28;;;-145.32;100.00
14041;BME280;7095;51.388;6.196;2023-01-30T00:43:38;77844.31;;;-145.32;100.00
14041;BME280;7095;51.388;6.196;2023-01-30T00:46:28;78869.66;;;-145.32;100.00
14041;BME280;7095;51.388;6.196;2023-01-30T00:49:15;78869.66;;;-145.32;100.00
14041;BME280;7095;51.388;6.196;2023-01-30T00:51:44;78869.66;;;-145.32;100.00
14041;BME280;7095;51.388;6.196;2023-01-30T00:54:12;79126.03;;;-145.32;100.00
14041;BME280;7095;51.388;6.196;2023-01-30T00:56:41;79638.84;;;-145.32;100.00
14041;BME280;7095;51.388;6.196;2023-01-30T00:59:11;79638.84;;;-145.32;100.00
14041;BME280;7095;51.388;6.196;2023-01-30T01:01:39;79895.28;;;-145.32;100.00
14041;BME280;7095;51.388;6.196;2023-01-30T01:04:08;79638.84;;;-145.32;100.00
14041;BME280;7095;51.388;6.196;2023-01-30T01:06:38;79382.44;;;-145.32;100.00
14041;BME280;7095;51.388;6.196;2023-01-30T01:09:06;79638.84;;;-145.32;100.00
14041;BME280;7095;51.388;6.196;2023-01-30T01:11:35;79638.84;;;-145.32;100.00
14041;BME280;7095;51.388;6.196;2023-01-30T01:14:06;79126.03;;;-145.32;100.00
14041;BME280;7095;51.388;6.196;2023-01-30T01:16:36;79126.03;;;-145.32;100.00
14041;BME280;7095;51.388;6.196;2023-01-30T01:19:04;78613.28;;;-145.32;100.00
14041;BME280;7095;51.388;6.196;2023-01-30T01:21:33;78356.94;;;-145.32;100.00
14041;BME280;7095;51.388;6.196;2023-01-30T01:24:04;78100.63;;;-145.32;100.00
14041;BME280;7095;51.388;6.196;2023-01-30T01:26:32;78356.94;;;-145.32;100.00
14041;BME280;7095;51.388;6.196;2023-01-30T01:29:02;78100.63;;;-145.32;100.00
14041;BME280;7095;51.388;6.196;2023-01-30T01:31:30;77844.31;;;-145.32;100.00
14041;BME280;7095;51.388;6.196;2023-01-30T01:34:00;78100.63;;;-145.32;100.00
14041;BME280;7095;51.388;6.196;2023-01-30T01:36:29;77844.31;;;-145.32;100.00
14041;BME280;7095;51.388;6.196;2023-01-30T01:39:17;77844.31;;;-145.32;100.00
14041;BME280;7095;51.388;6.196;2023-01-30T01:41:48;78100.63;;;-145.32;100.00
14041;BME280;7095;51.388;6.196;2023-01-30T01:44:16;78356.94;;;-145.32;100.00
14041;BME280;7095;51.388;6.196;2023-01-30T01:46:48;78356.94;;;-145.32;100.00
14041;BME280;7095;51.388;6.196;2023-01-30T01:49:22;78613.28;;;-145.32;100.00
14041;BME280;7095;51.388;6.196;2023-01-30T01:51:55;79126.03;;;-145.32;100.00
14041;BME280;7095;51.388;6.196;2023-01-30T01:54:28;79638.84;;;-145.32;100.00
14041;BME280;7095;51.388;6.196;2023-01-30T01:57:00;80151.75;;;-145.32;100.00
14041;BME280;7095;51.388;6.196;2023-01-30T01:59:32;80408.22;;;-145.32;100.00
14041;BME280;7095;51.388;6.196;2023-01-30T02:02:05;80921.25;;;-145.32;100.00
14041;BME280;7095;51.388;6.196;2023-01-30T02:04:40;81434.31;;;-145.32;100.00
14041;BME280;7095;51.388;6.196;2023-01-30T02:07:35;82204.09;;;-145.32;100.00
14041;BME280;7095;51.388;6.196;2023-01-30T02:10:08;82974.03;;;-145.32;100.00
14041;BME280;7095;51.388;6.196;2023-01-30T02:12:39;83487.44;;;-145.32;100.00
14041;BME280;7095;51.388;6.196;2023-01-30T02:15:09;83744.16;;;-145.32;100.00
14041;BME280;7095;51.388;6.196;2023-01-30T02:17:39;84000.91;;;-145.32;100.00
14041;BME280;7095;51.388;6.196;2023-01-30T02:20:17;84000.91;;;-145.32;100.00
14041;BME280;7095;51.388;6.196;2023-01-30T02:23:22;84000.91;;;-145.32;100.00
14041;BME280;7095;51.388;6.196;2023-01-30T02:32:09;84257.66;;;-145.32;100.00
14041;BME280;7095;51.388;6.196;2023-01-30T02:34:48;84257.66;;;-145.32;100.00
14041;BME280;7095;51.388;6.196;2023-01-30T02:37:28;84771.25;;;-145.32;100.00
14041;BME280;7095;51.388;6.196;2023-01-30T02:40:12;85284.91;;;-145.32;100.00
14041;BME280;7095;51.388;6.196;2023-01-30T02:42:50;85541.78;;;-145.32;100.00
14041;BME280;7095;51.388;6.196;2023-01-30T02:45:30;86055.56;;;-145.32;100.00
14041;BME280;7095;51.388;6.196;2023-01-30T02:48:04;86312.47;;;-145.32;100.00
14041;BME280;7095;51.388;6.196;2023-01-30T02:50:36;86055.56;;;-145.32;100.00
14041;BME280;7095;51.388;6.196;2023-01-30T02:53:08;86312.47;;;-145.32;100.00
14041;BME280;7095;51.388;6.196;2023-01-30T02:55:39;86569.41;;;-145.32;100.00
14041;BME280;7095;51.388;6.196;2023-01-30T02:58:09;87083.34;;;-145.32;100.00
14041;BME280;7095;51.388;6.196;2023-01-30T03:00:52;87340.31;;;-145.32;100.00
14041;BME280;7095;51.388;6.196;2023-01-30T03:03:42;88111.41;;;-145.32;100.00
14041;BME280;7095;51.388;6.196;2023-01-30T03:06:30;88625.56;;;-145.32;100.00
14041;BME280;7095;51.388;6.196;2023-01-30T03:09:09;89139.81;;;-145.32;100.00
14041;BME280;7095;51.388;6.196;2023-01-30T03:11:45;89139.81;;;-145.32;100.00
14041;BME280;7095;51.388;6.196;2023-01-30T03:14:20;89396.97;;;-145.32;100.00
14041;BME280;7095;51.388;6.196;2023-01-30T03:16:53;89654.13;;;-145.32;100.00
14041;BME280;7095;51.388;6.196;2023-01-30T03:19:25;89654.13;;;-145.32;100.00
14041;BME280;7095;51.388;6.196;2023-01-30T03:21:55;90168.50;;;-145.32;100.00
14041;BME280;7095;51.388;6.196;2023-01-30T03:24:24;90425.72;;;-145.32;100.00
14041;BME280;7095;51.388;6.196;2023-01-30T03:26:59;90940.22;;;-145.32;100.00
14041;BME280;7095;51.388;6.196;2023-01-30T03:29:29;91712.13;;;-145.32;100.00
14041;BME280;7095;51.388;6.196;2023-01-30T03:31:57;92226.81;;;-145.32;100.00
14041;BME280;7095;51.388;6.196;2023-01-30T03:34:27;92484.19;;;-145.32;100.00
14041;BME280;7095;51.388;6.196;2023-01-30T03:36:56;92741.59;;;-145.32;100.00
14041;BME280;7095;51.388;6.196;2023-01-30T03:39:25;92999.00;;;-145.32;100.00
14041;BME280;7095;51.388;6.196;2023-01-30T03:41:55;93256.44;;;-145.32;100.00
14041;BME280;7095;51.388;6.196;2023-01-30T03:44:23;94286.38;;;-145.32;100.00
14041;BME280;7095;51.388;6.196;2023-01-30T03:46:52;94286.38;;;-145.32;100.00
14041;BME280;7095;51.388;6.196;2023-01-30T03:49:22;94543.91;;;-145.32;100.00
14041;BME280;7095;51.388;6.196;2023-01-30T03:51:52;94801.44;;;-145.32;100.00
14041;BME280;7095;51.388;6.196;2023-01-30T03:54:21;95316.59;;;-145.32;100.00
14041;BME280;7095;51.388;6.196;2023-01-30T03:56:50;96089.47;;;-145.32;100.00
14041;BME280;7095;51.388;6.196;2023-01-30T03:59:18;97120.22;;;-145.32;100.00
14041;BME280;7095;51.388;6.196;2023-01-30T04:01:52;98151.31;;;-145.32;100.00
14041;BME280;7095;51.388;6.196;2023-01-30T04:04:22;98924.81;;;-145.32;100.00
14041;BME280;7095;51.388;6.196;2023-01-30T04:06:52;99440.56;;;-145.32;100.00
14041;BME280;7095;51.388;6.196;2023-01-30T04:09:20;100214.34;;;-145.32;100.00
14041;BME280;7095;51.388;6.196;2023-01-30T04:11:51;100730.31;;;-145.32;100.00
14041;BME280;7095;51.388;6.196;2023-01-30T04:14:19;101504.38;;;-145.32;100.00
14041;BME280;7095;51.388;6.196;2023-01-30T04:17:07;102278.66;;;-145.32;100.00
14041;BME280;7095;51.388;6.196;2023-01-30T04:19:54;102794.91;;;-145.32;100.00
14041;BME280;7095;51.388;6.196;2023-01-30T04:22:24;103053.06;;;-145.32;100.00
14041;BME280;7095;51.388;6.196;2023-01-30T04:24:52;104085.91;;;-145.32;100.00
14041;BME280;7095;51.388;6.196;2023-01-30T04:27:21;104860.72;;;-145.32;100.00
14041;BME280;7095;51.388;6.196;2023-01-30T04:30:10;105377.34;;;-145.32;100.00
14041;BME280;7095;51.388;6.196;2023-01-30T04:32:39;105894.09;;;-145.32;100.00
14041;BME280;7095;51.388;6.196;2023-01-30T04:35:09;106152.47;;;-145.32;100.00
14041;BME280;7095;51.388;6.196;2023-01-30T04:37:41;106410.88;;;-145.32;100.00
14041;BME280;7095;51.388;6.196;2023-01-30T04:40:12;106927.75;;;-145.32;100.00
14041;BME280;7095;51.388;6.196;2023-01-30T04:42:41;107444.69;;;-145.32;100.00
14041;BME280;7095;51.388;6.196;2023-01-30T04:45:33;107961.72;;;-145.32;100.00
14041;BME280;7095;51.388;6.196;2023-01-30T04:48:01;108737.41;;;-145.32;100.00
14041;BME280;7095;51.388;6.196;2023-01-30T04:50:31;108996.00;;;-145.32;100.00
14041;BME280;7095;51.388;6.196;2023-01-30T04:53:01;109513.28;;;-145.32;100.00
14041;BME280;7095;51.388;6.196;2023-01-30T04:55:30;110030.59;;;-145.32;100.00
14041;BME280;7095;51.388;6.196;2023-01-30T04:57:58;110806.75;;;-145.32;100.00
14041;BME280;7095;51.388;6.196;2023-01-30T05:00:27;111324.28;;;-145.32;100.00
14041;BME280;7095;51.388;6.196;2023-01-30T05:02:59;111583.06;;;-145.32;100.00
14041;BME280;7095;51.388;6.196;2023-01-30T05:05:27;111583.06;;;-145.32;100.00
14041;BME280;7095;51.388;6.196;2023-01-30T05:07:56;112618.41;;;-145.32;100.00
14041;BME280;7095;51.388;6.196;2023-01-30T05:10:25;113395.13;;;-145.32;100.00
14041;BME280;7095;51.388;6.196;2023-01-30T05:12:54;113395.13;;;-145.32;100.00
14041;BME280;7095;51.388;6.196;2023-01-30T05:15:22;113395.13;;;-145.32;100.00
14041;BME280;7095;51.388;6.196;2023-01-30T05:17:51;113395.13;;;-145.32;100.00
14041;BME280;7095;51.388;6.196;2023-01-30T05:20:20;113395.13;;;-145.32;100.00
14041;BME280;7095;51.388;6.196;2023-01-30T05:22:48;113654.06;;;-145.32;100.00
14041;BME280;7095;51.388;6.196;2023-01-30T05:25:17;113654.06;;;-145.32;100.00
14041;BME280;7095;51.388;6.196;2023-01-30T05:27:47;113654.06;;;-145.32;100.00
14041;BME280;7095;51.388;6.196;2023-01-30T05:30:16;113654.06;;;-145.32;100.00
14041;BME280;7095;51.388;6.196;2023-01-30T05:32:44;113913.03;;;-145.32;100.00
14041;BME280;7095;51.388;6.196;2023-01-30T05:35:13;113913.03;;;-145.32;100.00
14041;BME280;7095;51.388;6.196;2023-01-30T05:37:42;113654.06;;;-145.32;100.00
14041;BME280;7095;51.388;6.196;2023-01-30T05:40:11;113654.06;;;-145.32;100.00
14041;BME280;7095;51.388;6.196;2023-01-30T05:42:40;113654.06;;;-145.32;100.00
14041;BME280;7095;51.388;6.196;2023-01-30T05:45:10;113654.06;;;-145.32;100.00
14041;BME280;7095;51.388;6.196;2023-01-30T05:47:39;113654.06;;;-145.32;100.00
14041;BME280;7095;51.388;6.196;2023-01-30T05:50:09;113654.06;;;-145.32;100.00
14041;BME280;7095;51.388;6.196;2023-01-30T05:52:37;113913.03;;;-145.32;100.00
14041;BME280;7095;51.388;6.196;2023-01-30T05:55:07;114172.03;;;-145.32;100.00
14041;BME280;7095;51.388;6.196;2023-01-30T05:57:35;114172.03;;;-145.32;100.00
14041;BME280;7095;51.388;6.196;2023-01-30T06:00:05;114431.03;;;-145.32;100.00
14041;BME280;7095;51.388;6.196;2023-01-30T06:02:40;114431.03;;;-145.32;100.00
14041;BME280;7095;51.388;6.196;2023-01-30T06:05:08;114431.03;;;-145.32;100.00
14041;BME280;7095;51.388;6.196;2023-01-30T06:07:37;114690.03;;;-145.32;100.00
14041;BME280;7095;51.388;6.196;2023-01-30T06:10:06;114690.03;;;-145.32;100.00
14041;BME280;7095;51.388;6.196;2023-01-30T06:12:35;114431.03;;;-145.32;100.00
14041;BME280;7095;51.388;6.196;2023-01-30T06:15:04;114431.03;;;-145.32;100.00
14041;BME280;7095;51.388;6.196;2023-01-30T06:17:32;114690.03;;;-145.32;100.00
14041;BME280;7095;51.388;6.196;2023-01-30T06:20:03;114431.03;;;-145.32;100.00
14041;BME280;7095;51.388;6.196;2023-01-30T06:22:33;114431.03;;;-145.32;100.00
14041;BME280;7095;51.388;6.196;2023-01-30T06:25:01;114431.03;;;-145.32;100.00
14041;BME280;7095;51.388;6.196;2023-01-30T06:27:29;114431.03;;;-145.32;100.00
14041;BME280;7095;51.388;6.196;2023-01-30T06:29:58;114431.03;;;-145.32;100.00
14041;BME280;7095;51.388;6.196;2023-01-30T06:32:27;114431.03;;;-145.32;100.00
14041;BME280;7095;51.388;6.196;2023-01-30T06:34:55;114172.03;;;-145.32;100.00
14041;BME280;7095;51.388;6.196;2023-01-30T06:37:25;114172.03;;;-145.32;100.00
14041;BME280;7095;51.388;6.196;2023-01-30T06:39:54;113913.03;;;-145.32;100.00
14041;BME280;7095;51.388;6.196;2023-01-30T06:42:22;113654.06;;;-145.32;100.00
14041;BME280;7095;51.388;6.196;2023-01-30T06:44:51;113395.13;;;-145.32;100.00
14041;BME280;7095;51.388;6.196;2023-01-30T06:47:19;113395.13;;;-145.32;100.00
14041;BME280;7095;51.388;6.196;2023-01-30T06:49:48;113136.22;;;-145.32;100.00
14041;BME280;7095;51.388;6.196;2023-01-30T06:52:16;113136.22;;;-145.32;100.00
14041;BME280;7095;51.388;6.196;2023-01-30T06:54:46;112877.31;;;-145.32;100.00
14041;BME280;7095;51.388;6.196;2023-01-30T06:57:15;112618.41;;;-145.32;100.00
14041;BME280;7095;51.388;6.196;2023-01-30T06:59:43;112359.53;;;-145.32;100.00
14041;BME280;7095;51.388;6.196;2023-01-30T07:02:12;112359.53;;;-145.32;100.00
14041;BME280;7095;51.388;6.196;2023-01-30T07:04:41;112100.69;;;-145.32;100.00
14041;BME280;7095;51.388;6.196;2023-01-30T07:07:10;111841.88;;;-145.32;100.00
14041;BME280;7095;51.388;6.196;2023-01-30T07:09:38;111583.06;;;-145.32;100.00
14041;BME280;7095;51.388;6.196;2023-01-30T07:12:09;111065.50;;;-145.32;100.00
14041;BME280;7095;51.388;6.196;2023-01-30T07:14:37;110806.75;;;-145.32;100.00
14041;BME280;7095;51.388;6.196;2023-01-30T07:17:06;110030.59;;;-145.32;100.00
14041;BME280;7095;51.388;6.196;2023-01-30T07:19:34;108478.84;;;-145.32;100.00
14041;BME280;7095;51.388;6.196;2023-01-30T07:22:05;107444.69;;;-145.32;100.00
14041;BME280;7095;51.388;6.196;2023-01-30T07:24:33;106669.31;;;-145.32;100.00
14041;BME280;7095;51.388;6.196;2023-01-30T07:27:02;105894.09;;;-145.32;100.00
14041;BME280;7095;51.388;6.196;2023-01-30T07:29:33;104860.72;;;-145.32;100.00
14041;BME280;7095;51.388;6.196;2023-01-30T07:32:03;104085.91;;;-145.32;100.00
14041;BME280;7095;51.388;6.196;2023-01-30T07:34:32;102794.91;;;-145.32;100.00
14041;BME280;7095;51.388;6.196;2023-01-30T07:37:00;102020.53;;;-145.32;100.00
14041;BME280;7095;51.388;6.196;2023-01-30T07:39:29;100472.31;;;-145.32;100.00
14041;BME280;7095;51.388;6.196;2023-01-30T07:41:59;99440.56;;;-145.32;100.00
14041;BME280;7095;51.388;6.196;2023-01-30T07:44:27;99182.69;;;-145.32;100.00
14041;BME280;7095;51.388;6.196;2023-01-30T07:46:57;98151.31;;;-145.32;100.00
14041;BME280;7095;51.388;6.196;2023-01-30T07:49:26;96604.81;;;-145.32;100.00
14041;BME280;7095;51.388;6.196;2023-01-30T07:51:55;97120.22;;;-145.32;100.00
14041;BME280;7095;51.388;6.196;2023-01-30T07:54:26;97635.72;;;-145.32;100.00
14041;BME280;7095;51.388;6.196;2023-01-30T07:56:54;97635.72;;;-145.32;100.00
14041;BME280;7095;51.388;6.196;2023-01-30T07:59:23;98151.31;;;-145.32;100.00
14041;BME280;7095;51.388;6.196;2023-01-30T08:01:52;97893.50;;;-145.32;100.00
14041;BME280;7095;51.388;6.196;2023-01-30T08:04:22;97893.50;;;-145.32;100.00
14041;BME280;7095;51.388;6.196;2023-01-30T08:06:51;97377.97;;;-145.32;100.00
14041;BME280;7095;51.388;6.196;2023-01-30T08:09:19;95316.59;;;-145.32;100.00
14041;BME280;7095;51.388;6.196;2023-01-30T08:11:48;93513.91;;;-145.32;100.00
14041;BME280;7095;51.388;6.196;2023-01-30T08:14:16;90682.97;;;-145.32;100.00
14041;BME280;7095;51.388;6.196;2023-01-30T08:16:45;88368.50;;;-145.32;100.00
14041;BME280;7095;51.388;6.196;2023-01-30T08:19:15;88111.41;;;-145.32;100.00
14041;BME280;7095;51.388;6.196;2023-01-30T08:21:45;87083.34;;;-145.32;100.00
14041;BME280;7095;51.388;6.196;2023-01-30T08:24:13;82974.03;;;-145.32;100.00
14041;BME280;7095;51.388;6.196;2023-01-30T08:26:42;81947.50;;;-145.32;100.00
14041;BME280;7095;51.388;6.196;2023-01-30T08:29:11;80408.22;;;-145.32;100.00
14041;BME280;7095;51.388;6.196;2023-01-30T08:31:40;80664.72;;;-145.32;100.00
14041;BME280;7095;51.388;6.196;2023-01-30T08:34:08;78613.28;;;-145.32;100.00
14041;BME280;7095;51.388;6.196;2023-01-30T08:36:36;78869.66;;;-145.32;100.00
14041;BME280;7095;51.388;6.196;2023-01-30T08:39:06;78100.63;;;-145.32;100.00
14041;BME280;7095;51.388;6.196;2023-01-30T08:41:35;78613.28;;;-145.32;100.00
14041;BME280;7095;51.388;6.196;2023-01-30T08:44:04;78100.63;;;-145.32;100.00
14041;BME280;7095;51.388;6.196;2023-01-30T08:46:32;79126.03;;;-145.32;100.00
14041;BME280;7095;51.388;6.196;2023-01-30T08:49:01;75282.31;;;-145.32;100.00
14041;BME280;7095;51.388;6.196;2023-01-30T08:51:30;72466.34;;;-145.32;100.00
14041;BME280;7095;51.388;6.196;2023-01-30T08:53:58;74002.03;;;-145.32;100.00
14041;BME280;7095;51.388;6.196;2023-01-30T08:56:28;69638.69;;;-145.32;100.00
14041;BME280;7095;51.388;6.196;2023-01-30T08:58:57;68234.72;;;-145.32;100.00
14041;BME280;7095;51.388;6.196;2023-01-30T09:01:25;63414.13;;;-145.32;100.00
14041;BME280;7095;51.388;6.196;2023-01-30T09:03:54;62407.38;;;-145.32;100.00
14041;BME280;7095;51.388;6.196;2023-01-30T09:06:23;60976.50;;;-145.32;100.00
14041;BME280;7095;51.388;6.196;2023-01-30T09:08:52;58584.41;;;-145.32;100.00
14041;BME280;7095;51.388;6.196;2023-01-30T09:11:20;59438.66;;;-145.32;100.00
14041;BME280;7095;51.388;6.196;2023-01-30T09:13:50;58974.66;;;-145.32;100.00
14041;BME280;7095;51.388;6.196;2023-01-30T09:16:19;58234.00;;;-145.32;100.00
14041;BME280;7095;51.388;6.196;2023-01-30T09:18:48;57481.53;;;-145.32;100.00
14041;BME280;7095;51.388;6.196;2023-01-30T09:21:16;57441.72;;;-145.32;100.00
14041;BME280;7095;51.388;6.196;2023-01-30T09:23:45;56824.78;;;-145.32;100.00
14041;BME280;7095;51.388;6.196;2023-01-30T09:26:13;56460.63;;;-145.32;100.00
14041;BME280;7095;51.388;6.196;2023-01-30T09:28:42;56001.00;;;-145.32;100.00
14041;BME280;7095;51.388;6.196;2023-01-30T09:31:12;55931.38;;;-145.32;100.00
14041;BME280;7095;51.388;6.196;2023-01-30T09:33:41;55611.09;;;-145.32;100.00
14041;BME280;7095;51.388;6.196;2023-01-30T09:36:10;55493.72;;;-145.32;100.00
14041;BME280;7095;51.388;6.196;2023-01-30T09:38:38;55615.06;;;-145.32;100.00
14041;BME280;7095;51.388;6.196;2023-01-30T09:41:18;55189.38;;;-145.32;100.00
14041;BME280;7095;51.388;6.196;2023-01-30T09:44:05;54966.59;;;-145.32;100.00
14041;BME280;7095;51.388;6.196;2023-01-30T09:46:46;54940.75;;;-145.32;100.00
14041;BME280;7095;51.388;6.196;2023-01-30T09:49:28;54950.69;;;-145.32;100.00
14041;BME280;7095;51.388;6.196;2023-01-30T09:52:10;54795.56;;;-145.32;100.00
14041;BME280;7095;51.388;6.196;2023-01-30T09:54:44;54829.38;;;-145.32;100.00
14041;BME280;7095;51.388;6.196;2023-01-30T09:57:16;54781.66;;;-145.32;100.00
14041;BME280;7095;51.388;6.196;2023-01-30T09:59:53;54692.16;;;-145.32;100.00
14041;BME280;7095;51.388;6.196;2023-01-30T10:02:32;54644.41;;;-145.32;100.00
14041;BME280;7095;51.388;6.196;2023-01-30T10:05:04;54588.75;;;-145.32;100.00
14041;BME280;7095;51.388;6.196;2023-01-30T10:07:41;54443.56;;;-145.32;100.00
14041;BME280;7095;51.388;6.196;2023-01-30T10:10:19;54425.66;;;-145.32;100.00
14041;BME280;7095;51.388;6.196;2023-01-30T10:12:58;54373.97;;;-145.32;100.00
14041;BME280;7095;51.388;6.196;2023-01-30T10:15:36;54473.41;;;-145.32;100.00
14041;BME280;7095;51.388;6.196;2023-01-30T10:18:39;54362.03;;;-145.32;100.00
14041;BME280;7095;51.388;6.196;2023-01-30T10:21:19;54397.81;;;-145.32;100.00
14041;BME280;7095;51.388;6.196;2023-01-30T10:23:56;54346.13;;;-145.32;100.00
14041;BME280;7095;51.388;6.196;2023-01-30T10:26:29;54326.25;;;-145.32;100.00
14041;BME280;7095;51.388;6.196;2023-01-30T10:29:01;54326.25;;;-145.32;100.00
14041;BME280;7095;51.388;6.196;2023-01-30T10:31:39;54366.00;;;-145.32;100.00
14041;BME280;7095;51.388;6.196;2023-01-30T10:34:14;54334.19;;;-145.32;100.00
14041;BME280;7095;51.388;6.196;2023-01-30T10:36:49;54298.41;;;-145.32;100.00
14041;BME280;7095;51.388;6.196;2023-01-30T10:39:27;54294.41;;;-145.32;100.00
14041;BME280;7095;51.388;6.196;2023-01-30T10:42:04;54250.69;;;-145.32;100.00
14041;BME280;7095;51.388;6.196;2023-01-30T10:44:39;54266.59;;;-145.32;100.00
14041;BME280;7095;51.388;6.196;2023-01-30T10:47:28;54240.72;;;-145.32;100.00
14041;BME280;7095;51.388;6.196;2023-01-30T10:50:17;54216.88;;;-145.32;100.00
14041;BME280;7095;51.388;6.196;2023-01-30T10:52:52;54254.66;;;-145.32;100.00
14041;BME280;7095;51.388;6.196;2023-01-30T10:55:30;54202.94;;;-145.32;100.00
14041;BME280;7095;51.388;6.196;2023-01-30T10:58:12;54202.94;;;-145.32;100.00
14041;BME280;7095;51.388;6.196;2023-01-30T11:00:48;54187.03;;;-145.32;100.00
14041;BME280;7095;51.388;6.196;2023-01-30T11:03:27;54195.00;;;-145.32;100.00
14041;BME280;7095;51.388;6.196;2023-01-30T11:06:05;54135.34;;;-145.32;100.00
14041;BME280;7095;51.388;6.196;2023-01-30T11:08:35;54139.31;;;-145.32;100.00
14041;BME280;7095;51.388;6.196;2023-01-30T11:11:20;54129.38;;;-145.32;100.00
14041;BME280;7095;51.388;6.196;2023-01-30T11:14:00;54139.31;;;-145.32;100.00
14041;BME280;7095;51.388;6.196;2023-01-30T11:16:29;54157.22;;;-145.32;100.00
14041;BME280;7095;51.388;6.196;2023-01-30T11:19:03;54155.22;;;-145.32;100.00
14041;BME280;7095;51.388;6.196;2023-01-30T11:21:49;54123.41;;;-145.32;100.00
14041;BME280;7095;51.388;6.196;2023-01-30T11:24:20;54119.44;;;-145.32;100.00
14041;BME280;7095;51.388;6.196;2023-01-30T11:26:50;54089.59;;;-145.32;100.00
14041;BME280;7095;51.388;6.196;2023-01-30T11:29:26;54079.66;;;-145.32;100.00
14041;BME280;7095;51.388;6.196;2023-01-30T11:31:55;54069.72;;;-145.32;100.00
14041;BME280;7095;51.388;6.196;2023-01-30T11:34:29;54047.84;;;-145.32;100.00
14041;BME280;7095;51.388;6.196;2023-01-30T11:37:13;54095.56;;;-145.32;100.00
14041;BME280;7095;51.388;6.196;2023-01-30T11:39:50;54087.63;;;-145.32;100.00
14041;BME280;7095;51.388;6.196;2023-01-30T11:42:24;54067.75;;;-145.32;100.00
14041;BME280;7095;51.388;6.196;2023-01-30T11:44:55;54047.84;;;-145.32;100.00
14041;BME280;7095;51.388;6.196;2023-01-30T11:47:48;54085.63;;;-145.32;100.00
14041;BME280;7095;51.388;6.196;2023-01-30T11:50:28;54063.75;;;-145.32;100.00
14041;BME280;7095;51.388;6.196;2023-01-30T11:53:19;54075.69;;;-145.32;100.00
14041;BME280;7095;51.388;6.196;2023-01-30T11:55:50;54027.97;;;-145.32;100.00
14041;BME280;7095;51.388;6.196;2023-01-30T11:58:30;54043.88;;;-145.32;100.00
14041;BME280;7095;51.388;6.196;2023-01-30T12:01:00;54051.81;;;-145.32;100.00
14041;BME280;7095;51.388;6.196;2023-01-30T12:03:30;54035.91;;;-145.32;100.00
14041;BME280;7095;51.388;6.196;2023-01-30T12:06:00;54027.97;;;-145.32;100.00
14041;BME280;7095;51.388;6.196;2023-01-30T12:08:35;54016.03;;;-145.32;100.00
14041;BME280;7095;51.388;6.196;2023-01-30T12:11:25;54018.03;;;-145.32;100.00
14041;BME280;7095;51.388;6.196;2023-01-30T12:14:03;54057.78;;;-145.32;100.00
14041;BME280;7095;51.388;6.196;2023-01-30T12:16:44;54033.94;;;-145.32;100.00
14041;BME280;7095;51.388;6.196;2023-01-30T12:19:25;54016.03;;;-145.32;100.00
14041;BME280;7095;51.388;6.196;2023-01-30T12:22:00;53992.19;;;-145.32;100.00
14041;BME280;7095;51.388;6.196;2023-01-30T12:24:38;54004.09;;;-145.32;100.00
14041;BME280;7095;51.388;6.196;2023-01-30T12:27:12;54012.06;;;-145.32;100.00
14041;BME280;7095;51.388;6.196;2023-01-30T12:29:52;53998.16;;;-145.32;100.00
14041;BME280;7095;51.388;6.196;2023-01-30T12:32:25;53976.28;;;-145.32;100.00
14041;BME280;7095;51.388;6.196;2023-01-30T12:34:54;54022.00;;;-145.32;100.00
14041;BME280;7095;51.388;6.196;2023-01-30T12:37:39;54004.09;;;-145.32;100.00
14041;BME280;7095;51.388;6.196;2023-01-30T12:40:23;53976.28;;;-145.32;100.00
14041;BME280;7095;51.388;6.196;2023-01-30T12:43:08;53964.34;;;-145.32;100.00
14041;BME280;7095;51.388;6.196;2023-01-30T12:45:58;53980.25;;;-145.32;100.00
14041;BME280;7095;51.388;6.196;2023-01-30T12:48:47;54004.09;;;-145.32;100.00
14041;BME280;7095;51.388;6.196;2023-01-30T12:51:50;53970.31;;;-145.32;100.00
14041;BME280;7095;51.388;6.196;2023-01-30T12:54:34;53972.28;;;-145.32;100.00
14041;BME280;7095;51.388;6.196;2023-01-30T12:57:16;53996.16;;;-145.32;100.00
14041;BME280;7095;51.388;6.196;2023-01-30T12:59:54;53956.38;;;-145.32;100.00
14041;BME280;7095;51.388;6.196;2023-01-30T13:02:51;53984.22;;;-145.32;100.00
14041;BME280;7095;51.388;6.196;2023-01-30T13:05:34;53972.28;;;-145.32;100.00
14041;BME280;7095;51.388;6.196;2023-01-30T13:08:17;53966.34;;;-145.32;100.00
14041;BME280;7095;51.388;6.196;2023-01-30T13:10:53;53944.47;;;-145.32;100.00
14041;BME280;7095;51.388;6.196;2023-01-30T13:13:33;53970.31;;;-145.32;100.00